Dalmeny, Canada
Current Conditions -  °F | °C
As of 11:00 AM on Friday 31 Oct 2014 (Local Time) from CYXE Reporting Station
Broken Clouds Broken Clouds  
Wind Chill: 30°   Ceiling: 30000
Heat Index: 39°   Visibility: 15mi
Dew Point: 30°   Wind: 17mph
Humidity: 70%   Direction: 160°SSE
Pressure: 29.92"   Gusts: 28mph
Location:  52.33°N, 106.78°W
Report Text: CYXE 311700Z 16015G24KT 15SM SCT170 BKN300 04/M01 A2992 RMK AC4CI3 SLP156
Loading
Personal Weather Stations






























Interactive Weather Map
Tropical Storm Tracking
New forecast layout! Learn more

10-Day Weather Forecast

Advertisements
Track Severe Weather on mobile